Terminal Aerodrome Forecast
Issued by NWS

Home | Current Version | Previous Version | Text Only | Print | Product List | Glossary On
Versions: 1 2 3 4 5 6 7 8 9 10 11 12 13 14 15 16 17 18 19 20 21 22 23 24 25 26 27 28 29 30 31 32 33 34 35 36
000
FTUS42 KTBW 151722
TAFPIE
TAF
KPIE 151722Z 1518/1618 07007KT P6SM VCTS SCT030CB BKN080
     FM151900 35007KT P6SM VCTS BKN035CB
      TEMPO 1521/1601 3SM TS BKN025CB OVC100
     FM160200 07004KT P6SM BKN040 OVC250
     FM160600 09005KT P6SM SCT030 BKN250
     FM161500 11007KT P6SM FEW025 BKN250=

USA.gov is the U.S. government's official web portal to all federal, state and local government web resources and services.